sensor_id;sensor_type;location;lat;lon;timestamp;P1;durP1;ratioP1;P2;durP2;ratioP2
76846;SDS011;65813;49.546;8.644;2023-06-26T03:47:37;6.43;;;4.82;;
76846;SDS011;65813;49.546;8.644;2023-06-26T03:51:38;7.63;;;5.17;;
76846;SDS011;65813;49.546;8.644;2023-06-26T03:55:38;8.70;;;4.93;;
76846;SDS011;65813;49.546;8.644;2023-06-26T03:59:39;8.53;;;5.03;;
76846;SDS011;65813;49.546;8.644;2023-06-26T04:03:39;8.83;;;4.90;;
76846;SDS011;65813;49.546;8.644;2023-06-26T04:07:39;8.20;;;5.40;;
76846;SDS011;65813;49.546;8.644;2023-06-26T04:11:39;9.13;;;6.07;;
76846;SDS011;65813;49.546;8.644;2023-06-26T04:15:40;10.07;;;5.70;;
76846;SDS011;65813;49.546;8.644;2023-06-26T04:19:40;9.20;;;5.40;;
76846;SDS011;65813;49.546;8.644;2023-06-26T04:23:40;7.13;;;4.83;;
76846;SDS011;65813;49.546;8.644;2023-06-26T04:27:41;7.80;;;5.37;;
76846;SDS011;65813;49.546;8.644;2023-06-26T04:31:41;8.67;;;5.53;;
76846;SDS011;65813;49.546;8.644;2023-06-26T04:35:46;7.38;;;5.40;;
76846;SDS011;65813;49.546;8.644;2023-06-26T04:39:48;8.18;;;5.90;;
76846;SDS011;65813;49.546;8.644;2023-06-26T04:43:49;7.83;;;5.00;;
76846;SDS011;65813;49.546;8.644;2023-06-26T04:47:49;7.60;;;5.00;;
76846;SDS011;65813;49.546;8.644;2023-06-26T04:51:49;8.80;;;5.63;;
76846;SDS011;65813;49.546;8.644;2023-06-26T04:55:51;8.32;;;5.30;;
76846;SDS011;65813;49.546;8.644;2023-06-26T04:59:51;8.15;;;5.07;;
76846;SDS011;65813;49.546;8.644;2023-06-26T05:03:52;9.50;;;5.43;;
76846;SDS011;65813;49.546;8.644;2023-06-26T05:07:53;7.87;;;4.90;;
76846;SDS011;65813;49.546;8.644;2023-06-26T05:11:54;7.82;;;5.38;;
76846;SDS011;65813;49.546;8.644;2023-06-26T05:15:54;10.00;;;5.10;;
76846;SDS011;65813;49.546;8.644;2023-06-26T05:19:54;9.83;;;5.30;;
76846;SDS011;65813;49.546;8.644;2023-06-26T05:23:55;8.20;;;5.20;;
76846;SDS011;65813;49.546;8.644;2023-06-26T05:27:57;9.93;;;5.75;;
76846;SDS011;65813;49.546;8.644;2023-06-26T05:31:58;7.60;;;5.65;;
76846;SDS011;65813;49.546;8.644;2023-06-26T05:35:59;8.80;;;5.82;;
76846;SDS011;65813;49.546;8.644;2023-06-26T05:40:00;8.02;;;5.50;;
76846;SDS011;65813;49.546;8.644;2023-06-26T05:44:01;9.13;;;5.90;;
76846;SDS011;65813;49.546;8.644;2023-06-26T05:48:01;9.73;;;5.70;;
76846;SDS011;65813;49.546;8.644;2023-06-26T05:52:02;8.73;;;5.82;;
76846;SDS011;65813;49.546;8.644;2023-06-26T05:56:02;10.07;;;5.65;;
76846;SDS011;65813;49.546;8.644;2023-06-26T06:00:03;9.10;;;5.68;;
76846;SDS011;65813;49.546;8.644;2023-06-26T06:04:06;8.60;;;5.90;;
76846;SDS011;65813;49.546;8.644;2023-06-26T06:08:07;9.60;;;5.80;;
76846;SDS011;65813;49.546;8.644;2023-06-26T06:12:07;10.43;;;6.40;;
76846;SDS011;65813;49.546;8.644;2023-06-26T06:16:08;9.13;;;6.25;;
76846;SDS011;65813;49.546;8.644;2023-06-26T06:20:08;8.98;;;5.85;;
76846;SDS011;65813;49.546;8.644;2023-06-26T06:24:09;10.48;;;6.45;;
76846;SDS011;65813;49.546;8.644;2023-06-26T06:28:09;8.40;;;5.73;;
76846;SDS011;65813;49.546;8.644;2023-06-26T06:32:10;8.20;;;6.13;;
76846;SDS011;65813;49.546;8.644;2023-06-26T06:36:10;8.67;;;5.27;;
76846;SDS011;65813;49.546;8.644;2023-06-26T06:40:11;9.90;;;5.67;;
76846;SDS011;65813;49.546;8.644;2023-06-26T06:44:11;8.02;;;5.25;;
76846;SDS011;65813;49.546;8.644;2023-06-26T06:48:12;9.07;;;5.83;;
76846;SDS011;65813;49.546;8.644;2023-06-26T06:52:12;7.33;;;5.20;;
76846;SDS011;65813;49.546;8.644;2023-06-26T06:56:12;8.50;;;5.55;;
76846;SDS011;65813;49.546;8.644;2023-06-26T07:00:13;8.63;;;5.47;;
76846;SDS011;65813;49.546;8.644;2023-06-26T07:04:14;7.80;;;5.55;;
76846;SDS011;65813;49.546;8.644;2023-06-26T07:08:15;7.47;;;5.25;;
76846;SDS011;65813;49.546;8.644;2023-06-26T07:12:15;7.72;;;5.25;;
76846;SDS011;65813;49.546;8.644;2023-06-26T07:16:16;7.73;;;5.57;;
76846;SDS011;65813;49.546;8.644;2023-06-26T07:20:16;8.35;;;5.68;;
76846;SDS011;65813;49.546;8.644;2023-06-26T07:24:17;8.32;;;5.35;;
76846;SDS011;65813;49.546;8.644;2023-06-26T07:28:17;8.70;;;5.80;;
76846;SDS011;65813;49.546;8.644;2023-06-26T07:32:17;9.07;;;5.70;;
76846;SDS011;65813;49.546;8.644;2023-06-26T07:36:18;9.73;;;6.23;;
76846;SDS011;65813;49.546;8.644;2023-06-26T07:40:18;8.07;;;5.87;;
76846;SDS011;65813;49.546;8.644;2023-06-26T07:44:18;9.07;;;5.75;;
76846;SDS011;65813;49.546;8.644;2023-06-26T07:48:19;12.07;;;6.47;;
76846;SDS011;65813;49.546;8.644;2023-06-26T07:52:19;12.93;;;6.00;;
76846;SDS011;65813;49.546;8.644;2023-06-26T07:56:19;9.13;;;5.80;;
76846;SDS011;65813;49.546;8.644;2023-06-26T08:00:20;9.37;;;6.23;;
76846;SDS011;65813;49.546;8.644;2023-06-26T08:04:21;8.57;;;5.95;;
76846;SDS011;65813;49.546;8.644;2023-06-26T08:08:23;10.10;;;5.65;;
76846;SDS011;65813;49.546;8.644;2023-06-26T08:12:23;10.97;;;6.90;;
76846;SDS011;65813;49.546;8.644;2023-06-26T08:16:24;8.90;;;5.80;;
76846;SDS011;65813;49.546;8.644;2023-06-26T08:20:24;8.85;;;5.93;;
76846;SDS011;65813;49.546;8.644;2023-06-26T08:24:24;9.32;;;5.75;;
76846;SDS011;65813;49.546;8.644;2023-06-26T08:28:25;8.50;;;5.93;;
76846;SDS011;65813;49.546;8.644;2023-06-26T08:32:25;7.97;;;6.03;;
76846;SDS011;65813;49.546;8.644;2023-06-26T08:36:25;8.90;;;5.77;;
76846;SDS011;65813;49.546;8.644;2023-06-26T08:40:26;8.47;;;5.30;;
76846;SDS011;65813;49.546;8.644;2023-06-26T08:44:27;8.77;;;5.93;;
76846;SDS011;65813;49.546;8.644;2023-06-26T08:48:32;7.75;;;5.65;;
76846;SDS011;65813;49.546;8.644;2023-06-26T08:52:35;8.43;;;5.68;;
76846;SDS011;65813;49.546;8.644;2023-06-26T08:56:57;9.43;;;6.00;;
76846;SDS011;65813;49.546;8.644;2023-06-26T09:00:59;10.85;;;6.25;;
76846;SDS011;65813;49.546;8.644;2023-06-26T09:05:01;9.68;;;5.60;;
76846;SDS011;65813;49.546;8.644;2023-06-26T09:09:02;8.52;;;6.40;;
76846;SDS011;65813;49.546;8.644;2023-06-26T09:13:03;10.00;;;5.80;;
76846;SDS011;65813;49.546;8.644;2023-06-26T09:17:04;9.90;;;5.90;;
76846;SDS011;65813;49.546;8.644;2023-06-26T09:21:08;9.32;;;5.13;;
76846;SDS011;65813;49.546;8.644;2023-06-26T09:25:09;10.00;;;5.82;;
76846;SDS011;65813;49.546;8.644;2023-06-26T09:29:10;11.15;;;5.82;;
76846;SDS011;65813;49.546;8.644;2023-06-26T09:33:14;7.40;;;4.55;;
76846;SDS011;65813;49.546;8.644;2023-06-26T09:37:15;6.38;;;4.38;;
76846;SDS011;65813;49.546;8.644;2023-06-26T09:41:19;8.07;;;5.25;;
76846;SDS011;65813;49.546;8.644;2023-06-26T09:45:20;8.88;;;4.90;;
76846;SDS011;65813;49.546;8.644;2023-06-26T09:49:20;8.10;;;4.95;;
76846;SDS011;65813;49.546;8.644;2023-06-26T09:53:21;6.97;;;4.28;;
76846;SDS011;65813;49.546;8.644;2023-06-26T09:57:21;7.88;;;4.85;;
76846;SDS011;65813;49.546;8.644;2023-06-26T10:01:22;7.50;;;5.07;;
76846;SDS011;65813;49.546;8.644;2023-06-26T10:05:22;7.73;;;4.83;;
76846;SDS011;65813;49.546;8.644;2023-06-26T10:09:23;8.53;;;4.80;;
76846;SDS011;65813;49.546;8.644;2023-06-26T10:13:25;6.88;;;4.93;;
76846;SDS011;65813;49.546;8.644;2023-06-26T10:17:32;7.25;;;5.22;;
76846;SDS011;65813;49.546;8.644;2023-06-26T10:21:35;7.07;;;5.15;;
76846;SDS011;65813;49.546;8.644;2023-06-26T10:29:40;8.10;;;5.63;;
76846;SDS011;65813;49.546;8.644;2023-06-26T10:33:42;9.02;;;5.65;;
76846;SDS011;65813;49.546;8.644;2023-06-26T10:41:49;7.90;;;5.63;;
76846;SDS011;65813;49.546;8.644;2023-06-26T10:45:55;9.77;;;5.75;;
76846;SDS011;65813;49.546;8.644;2023-06-26T10:49:55;8.60;;;5.67;;
76846;SDS011;65813;49.546;8.644;2023-06-26T10:53:56;6.20;;;5.30;;
76846;SDS011;65813;49.546;8.644;2023-06-26T10:57:57;7.05;;;5.05;;
76846;SDS011;65813;49.546;8.644;2023-06-26T11:06:10;8.95;;;5.05;;
76846;SDS011;65813;49.546;8.644;2023-06-26T11:10:10;7.45;;;5.05;;
76846;SDS011;65813;49.546;8.644;2023-06-26T11:14:11;7.68;;;5.15;;
76846;SDS011;65813;49.546;8.644;2023-06-26T11:18:12;6.60;;;4.97;;
76846;SDS011;65813;49.546;8.644;2023-06-26T11:22:13;6.40;;;4.75;;
76846;SDS011;65813;49.546;8.644;2023-06-26T11:26:16;6.40;;;4.88;;
76846;SDS011;65813;49.546;8.644;2023-06-26T11:30:23;8.00;;;4.97;;
76846;SDS011;65813;49.546;8.644;2023-06-26T11:34:25;8.27;;;6.20;;
76846;SDS011;65813;49.546;8.644;2023-06-26T11:38:36;8.35;;;5.97;;
76846;SDS011;65813;49.546;8.644;2023-06-26T11:42:37;9.27;;;6.00;;
76846;SDS011;65813;49.546;8.644;2023-06-26T11:46:38;8.70;;;5.85;;
76846;SDS011;65813;49.546;8.644;2023-06-26T11:50:38;8.73;;;5.93;;
76846;SDS011;65813;49.546;8.644;2023-06-26T11:54:39;6.93;;;5.80;;
76846;SDS011;65813;49.546;8.644;2023-06-26T11:58:56;10.60;;;5.70;;
76846;SDS011;65813;49.546;8.644;2023-06-26T12:03:03;8.35;;;5.75;;
76846;SDS011;65813;49.546;8.644;2023-06-26T12:07:04;9.93;;;5.28;;
76846;SDS011;65813;49.546;8.644;2023-06-26T12:11:08;9.23;;;5.45;;
76846;SDS011;65813;49.546;8.644;2023-06-26T12:15:10;7.70;;;5.13;;
76846;SDS011;65813;49.546;8.644;2023-06-26T12:19:12;8.85;;;4.25;;
76846;SDS011;65813;49.546;8.644;2023-06-26T12:23:14;5.70;;;4.30;;
76846;SDS011;65813;49.546;8.644;2023-06-26T12:27:15;7.13;;;4.40;;
76846;SDS011;65813;49.546;8.644;2023-06-26T12:31:19;5.95;;;4.30;;
76846;SDS011;65813;49.546;8.644;2023-06-26T12:35:21;8.13;;;4.40;;
76846;SDS011;65813;49.546;8.644;2023-06-26T12:39:21;9.55;;;4.05;;
76846;SDS011;65813;49.546;8.644;2023-06-26T12:43:22;7.32;;;4.15;;
76846;SDS011;65813;49.546;8.644;2023-06-26T12:47:24;8.05;;;4.60;;
76846;SDS011;65813;49.546;8.644;2023-06-26T12:51:26;5.78;;;4.28;;
76846;SDS011;65813;49.546;8.644;2023-06-26T12:55:27;9.88;;;4.68;;
76846;SDS011;65813;49.546;8.644;2023-06-26T12:59:28;6.00;;;4.30;;
76846;SDS011;65813;49.546;8.644;2023-06-26T13:03:28;6.30;;;4.60;;
76846;SDS011;65813;49.546;8.644;2023-06-26T13:07:28;7.53;;;4.67;;
76846;SDS011;65813;49.546;8.644;2023-06-26T13:11:28;7.10;;;5.13;;
76846;SDS011;65813;49.546;8.644;2023-06-26T13:15:29;7.57;;;5.13;;
76846;SDS011;65813;49.546;8.644;2023-06-26T13:19:29;9.98;;;7.43;;
76846;SDS011;65813;49.546;8.644;2023-06-26T13:23:29;10.73;;;7.13;;
76846;SDS011;65813;49.546;8.644;2023-06-26T13:27:30;12.27;;;7.50;;
76846;SDS011;65813;49.546;8.644;2023-06-26T13:31:30;9.87;;;7.17;;
76846;SDS011;65813;49.546;8.644;2023-06-26T13:35:31;10.73;;;7.60;;
76846;SDS011;65813;49.546;8.644;2023-06-26T13:39:31;11.27;;;6.90;;
76846;SDS011;65813;49.546;8.644;2023-06-26T13:43:32;11.55;;;6.80;;
76846;SDS011;65813;49.546;8.644;2023-06-26T13:47:33;8.32;;;6.38;;
76846;SDS011;65813;49.546;8.644;2023-06-26T13:51:34;10.13;;;6.35;;
76846;SDS011;65813;49.546;8.644;2023-06-26T13:55:34;6.93;;;5.10;;
76846;SDS011;65813;49.546;8.644;2023-06-26T13:59:36;8.23;;;4.88;;
76846;SDS011;65813;49.546;8.644;2023-06-26T14:03:37;7.93;;;4.25;;
76846;SDS011;65813;49.546;8.644;2023-06-26T14:07:38;6.73;;;4.20;;
76846;SDS011;65813;49.546;8.644;2023-06-26T14:11:38;8.80;;;3.37;;
76846;SDS011;65813;49.546;8.644;2023-06-26T14:15:38;6.50;;;3.20;;
76846;SDS011;65813;49.546;8.644;2023-06-26T14:19:40;6.55;;;3.70;;
76846;SDS011;65813;49.546;8.644;2023-06-26T14:23:40;5.75;;;2.95;;
76846;SDS011;65813;49.546;8.644;2023-06-26T14:27:41;4.63;;;2.70;;
76846;SDS011;65813;49.546;8.644;2023-06-26T14:31:41;6.67;;;2.90;;
76846;SDS011;65813;49.546;8.644;2023-06-26T14:35:41;6.30;;;3.00;;
76846;SDS011;65813;49.546;8.644;2023-06-26T14:39:42;4.40;;;2.37;;
76846;SDS011;65813;49.546;8.644;2023-06-26T14:43:42;5.00;;;2.43;;
76846;SDS011;65813;49.546;8.644;2023-06-26T14:47:42;5.50;;;2.40;;
76846;SDS011;65813;49.546;8.644;2023-06-26T14:51:43;4.67;;;2.47;;
76846;SDS011;65813;49.546;8.644;2023-06-26T14:55:43;6.23;;;2.10;;
76846;SDS011;65813;49.546;8.644;2023-06-26T14:59:43;5.40;;;2.63;;
76846;SDS011;65813;49.546;8.644;2023-06-26T15:03:43;6.90;;;2.40;;
76846;SDS011;65813;49.546;8.644;2023-06-26T15:07:44;5.47;;;2.33;;
76846;SDS011;65813;49.546;8.644;2023-06-26T15:11:44;6.17;;;2.40;;
76846;SDS011;65813;49.546;8.644;2023-06-26T15:15:44;5.13;;;2.40;;
76846;SDS011;65813;49.546;8.644;2023-06-26T15:19:45;5.67;;;2.17;;
76846;SDS011;65813;49.546;8.644;2023-06-26T15:23:45;4.40;;;2.17;;
76846;SDS011;65813;49.546;8.644;2023-06-26T15:27:47;5.88;;;2.33;;
76846;SDS011;65813;49.546;8.644;2023-06-26T15:31:47;4.97;;;2.37;;
76846;SDS011;65813;49.546;8.644;2023-06-26T15:35:48;6.10;;;2.05;;
76846;SDS011;65813;49.546;8.644;2023-06-26T15:39:48;5.83;;;2.33;;
76846;SDS011;65813;49.546;8.644;2023-06-26T15:43:48;5.13;;;2.47;;
76846;SDS011;65813;49.546;8.644;2023-06-26T15:47:49;5.33;;;1.80;;
76846;SDS011;65813;49.546;8.644;2023-06-26T15:51:50;4.15;;;2.08;;
76846;SDS011;65813;49.546;8.644;2023-06-26T15:55:50;7.65;;;2.15;;
76846;SDS011;65813;49.546;8.644;2023-06-26T15:59:51;4.07;;;2.10;;
76846;SDS011;65813;49.546;8.644;2023-06-26T16:03:51;4.47;;;1.93;;
76846;SDS011;65813;49.546;8.644;2023-06-26T16:07:51;4.70;;;2.00;;
76846;SDS011;65813;49.546;8.644;2023-06-26T16:11:52;5.90;;;2.10;;
76846;SDS011;65813;49.546;8.644;2023-06-26T16:15:52;3.90;;;1.53;;
76846;SDS011;65813;49.546;8.644;2023-06-26T16:19:52;4.23;;;1.47;;
76846;SDS011;65813;49.546;8.644;2023-06-26T16:23:53;4.90;;;1.80;;
76846;SDS011;65813;49.546;8.644;2023-06-26T16:27:53;5.47;;;1.87;;
76846;SDS011;65813;49.546;8.644;2023-06-26T16:31:53;6.22;;;1.80;;
76846;SDS011;65813;49.546;8.644;2023-06-26T16:35:54;5.30;;;2.15;;
76846;SDS011;65813;49.546;8.644;2023-06-26T16:39:54;3.70;;;1.60;;
76846;SDS011;65813;49.546;8.644;2023-06-26T16:43:55;4.07;;;1.70;;
76846;SDS011;65813;49.546;8.644;2023-06-26T16:47:55;4.20;;;1.80;;
76846;SDS011;65813;49.546;8.644;2023-06-26T16:51:56;5.20;;;2.45;;
76846;SDS011;65813;49.546;8.644;2023-06-26T16:55:56;4.03;;;1.70;;
76846;SDS011;65813;49.546;8.644;2023-06-26T16:59:57;3.97;;;1.90;;
76846;SDS011;65813;49.546;8.644;2023-06-26T17:03:57;4.75;;;1.65;;
76846;SDS011;65813;49.546;8.644;2023-06-26T17:07:57;4.80;;;1.80;;
76846;SDS011;65813;49.546;8.644;2023-06-26T17:11:58;3.40;;;2.17;;
76846;SDS011;65813;49.546;8.644;2023-06-26T17:15:58;4.80;;;1.80;;
76846;SDS011;65813;49.546;8.644;2023-06-26T17:19:58;6.70;;;2.03;;
76846;SDS011;65813;49.546;8.644;2023-06-26T17:23:59;4.37;;;1.73;;
76846;SDS011;65813;49.546;8.644;2023-06-26T17:27:59;7.30;;;2.10;;
76846;SDS011;65813;49.546;8.644;2023-06-26T17:31:59;5.22;;;1.77;;
76846;SDS011;65813;49.546;8.644;2023-06-26T17:36:00;3.90;;;1.70;;
76846;SDS011;65813;49.546;8.644;2023-06-26T17:40:00;4.43;;;1.70;;
76846;SDS011;65813;49.546;8.644;2023-06-26T17:44:01;3.42;;;1.52;;
76846;SDS011;65813;49.546;8.644;2023-06-26T17:48:01;4.30;;;1.77;;
76846;SDS011;65813;49.546;8.644;2023-06-26T17:52:02;3.47;;;1.90;;
76846;SDS011;65813;49.546;8.644;2023-06-26T17:56:02;4.22;;;1.77;;
76846;SDS011;65813;49.546;8.644;2023-06-26T18:00:03;6.72;;;1.73;;
76846;SDS011;65813;49.546;8.644;2023-06-26T18:04:04;4.85;;;1.90;;
76846;SDS011;65813;49.546;8.644;2023-06-26T18:08:05;5.53;;;1.53;;
76846;SDS011;65813;49.546;8.644;2023-06-26T18:12:05;5.20;;;2.20;;
76846;SDS011;65813;49.546;8.644;2023-06-26T18:16:06;5.97;;;1.83;;
76846;SDS011;65813;49.546;8.644;2023-06-26T18:20:08;4.65;;;2.00;;
76846;SDS011;65813;49.546;8.644;2023-06-26T18:24:09;4.07;;;1.67;;
76846;SDS011;65813;49.546;8.644;2023-06-26T18:28:09;5.60;;;2.03;;
76846;SDS011;65813;49.546;8.644;2023-06-26T18:32:11;4.63;;;1.70;;
76846;SDS011;65813;49.546;8.644;2023-06-26T18:36:11;4.53;;;1.52;;
76846;SDS011;65813;49.546;8.644;2023-06-26T18:40:17;6.40;;;1.92;;
76846;SDS011;65813;49.546;8.644;2023-06-26T18:44:18;4.75;;;1.88;;
76846;SDS011;65813;49.546;8.644;2023-06-26T18:48:18;5.00;;;1.70;;
76846;SDS011;65813;49.546;8.644;2023-06-26T18:52:19;4.32;;;1.77;;
76846;SDS011;65813;49.546;8.644;2023-06-26T18:56:19;5.20;;;1.63;;
76846;SDS011;65813;49.546;8.644;2023-06-26T19:00:20;6.20;;;2.22;;
76846;SDS011;65813;49.546;8.644;2023-06-26T19:04:21;6.27;;;1.60;;
76846;SDS011;65813;49.546;8.644;2023-06-26T19:08:21;4.75;;;1.80;;
76846;SDS011;65813;49.546;8.644;2023-06-26T19:12:21;3.00;;;1.50;;
76846;SDS011;65813;49.546;8.644;2023-06-26T19:16:23;3.47;;;1.50;;
76846;SDS011;65813;49.546;8.644;2023-06-26T19:20:23;4.17;;;1.40;;
76846;SDS011;65813;49.546;8.644;2023-06-26T19:24:24;4.63;;;1.50;;
76846;SDS011;65813;49.546;8.644;2023-06-26T19:28:24;3.70;;;1.80;;
76846;SDS011;65813;49.546;8.644;2023-06-26T19:32:25;4.00;;;1.35;;
76846;SDS011;65813;49.546;8.644;2023-06-26T19:36:25;3.67;;;2.00;;
76846;SDS011;65813;49.546;8.644;2023-06-26T19:40:30;3.72;;;1.60;;
76846;SDS011;65813;49.546;8.644;2023-06-26T19:44:31;4.70;;;1.55;;
76846;SDS011;65813;49.546;8.644;2023-06-26T19:48:31;3.93;;;1.50;;
76846;SDS011;65813;49.546;8.644;2023-06-26T19:52:32;2.03;;;1.33;;
76846;SDS011;65813;49.546;8.644;2023-06-26T19:56:32;3.67;;;1.50;;
76846;SDS011;65813;49.546;8.644;2023-06-26T20:00:32;4.43;;;1.33;;
76846;SDS011;65813;49.546;8.644;2023-06-26T20:04:34;3.60;;;1.60;;
76846;SDS011;65813;49.546;8.644;2023-06-26T20:08:35;3.70;;;1.63;;
76846;SDS011;65813;49.546;8.644;2023-06-26T20:12:36;5.18;;;1.58;;
76846;SDS011;65813;49.546;8.644;2023-06-26T20:16:36;6.03;;;1.50;;
76846;SDS011;65813;49.546;8.644;2023-06-26T20:20:37;4.50;;;1.70;;
76846;SDS011;65813;49.546;8.644;2023-06-26T20:24:37;3.57;;;1.70;;
76846;SDS011;65813;49.546;8.644;2023-06-26T20:28:37;4.72;;;1.40;;
76846;SDS011;65813;49.546;8.644;2023-06-26T20:32:38;4.07;;;1.73;;
76846;SDS011;65813;49.546;8.644;2023-06-26T20:36:38;3.60;;;1.60;;
76846;SDS011;65813;49.546;8.644;2023-06-26T20:40:38;3.13;;;1.60;;
76846;SDS011;65813;49.546;8.644;2023-06-26T20:44:39;4.60;;;1.90;;
76846;SDS011;65813;49.546;8.644;2023-06-26T20:48:40;4.78;;;1.55;;
76846;SDS011;65813;49.546;8.644;2023-06-26T20:52:43;4.28;;;1.60;;
76846;SDS011;65813;49.546;8.644;2023-06-26T20:56:44;4.88;;;1.60;;
76846;SDS011;65813;49.546;8.644;2023-06-26T21:00:44;3.43;;;1.80;;
76846;SDS011;65813;49.546;8.644;2023-06-26T21:04:45;5.13;;;1.55;;
76846;SDS011;65813;49.546;8.644;2023-06-26T21:08:46;3.70;;;1.43;;
76846;SDS011;65813;49.546;8.644;2023-06-26T21:12:47;3.30;;;1.77;;
